createdAt,value
2017-07-01T00:00:14.412Z,0
2017-07-01T00:01:24.456Z,0
2017-07-01T00:02:34.814Z,0
2017-07-01T00:03:44.859Z,0
2017-07-01T00:04:54.877Z,0
2017-07-01T00:06:05.276Z,0
2017-07-01T00:07:15.012Z,0
2017-07-01T00:08:25.361Z,0
2017-07-01T00:09:35.710Z,0
2017-07-01T00:10:46.049Z,0
2017-07-01T00:11:56.144Z,0
2017-07-01T00:13:05.869Z,0
2017-07-01T00:14:16.221Z,0
2017-07-01T00:15:26.570Z,0
2017-07-01T00:16:36.921Z,0
2017-07-01T00:17:47.002Z,0
2017-07-01T00:18:57.027Z,0
2017-07-01T00:20:07.385Z,0
2017-07-01T00:21:17.423Z,0
2017-07-01T00:22:27.506Z,0
2017-07-01T00:23:37.862Z,0
2017-07-01T00:24:48.204Z,0
2017-07-01T00:25:58.548Z,0
2017-07-01T00:27:08.906Z,0
2017-07-01T00:28:18.642Z,0
2017-07-01T00:29:29.046Z,0
2017-07-01T00:30:38.769Z,0
2017-07-01T00:31:49.106Z,0
2017-07-01T00:32:59.460Z,0
2017-07-01T00:34:09.819Z,0
2017-07-01T00:35:20.216Z,0
2017-07-01T00:36:30.591Z,0
2017-07-01T00:37:40.633Z,0
2017-07-01T00:38:50.355Z,0
2017-07-01T00:40:00.702Z,0
2017-07-01T00:41:11.089Z,0
2017-07-01T00:42:21.121Z,0
2017-07-01T00:43:31.465Z,0
2017-07-01T00:44:41.819Z,0
2017-07-01T00:45:52.170Z,0
2017-07-01T00:47:02.572Z,0
2017-07-01T00:48:12.932Z,0
2017-07-01T00:49:23.280Z,0
2017-07-01T00:50:33.002Z,0
2017-07-01T00:51:43.367Z,0
2017-07-01T00:52:53.761Z,0
2017-07-01T00:54:03.804Z,0
2017-07-01T00:55:13.825Z,0
2017-07-01T00:56:24.186Z,0
2017-07-01T00:57:34.524Z,0
2017-07-01T00:58:44.607Z,0
2017-07-01T00:59:54.977Z,0
2017-07-01T01:01:05.015Z,0
2017-07-01T01:02:15.360Z,0
2017-07-01T01:03:25.782Z,0
2017-07-01T01:04:35.813Z,0
2017-07-01T01:05:45.535Z,0
2017-07-01T01:06:55.911Z,0
2017-07-01T01:08:05.951Z,0
2017-07-01T01:09:16.306Z,0
2017-07-01T01:10:26.669Z,0
2017-07-01T01:11:36.726Z,0
2017-07-01T01:12:47.065Z,0
2017-07-01T01:13:57.107Z,0
2017-07-01T01:15:07.493Z,0
2017-07-01T01:16:17.275Z,0
2017-07-01T01:17:27.627Z,0
2017-07-01T01:18:37.975Z,0
2017-07-01T01:19:48.003Z,0
2017-07-01T01:20:58.039Z,0
2017-07-01T01:22:08.445Z,0
2017-07-01T01:23:18.784Z,0
2017-07-01T01:24:29.122Z,0
2017-07-01T01:25:39.464Z,0
2017-07-01T01:26:49.804Z,0
2017-07-01T01:28:00.202Z,0
2017-07-01T01:29:09.926Z,0
2017-07-01T01:30:19.643Z,0
2017-07-01T01:31:29.974Z,0
2017-07-01T01:32:40.009Z,0
2017-07-01T01:33:50.371Z,0
2017-07-01T01:35:00.733Z,0
2017-07-01T01:36:10.743Z,0
2017-07-01T01:37:21.138Z,0
2017-07-01T01:38:31.176Z,0
2017-07-01T01:39:41.569Z,0
2017-07-01T01:40:51.923Z,0
2017-07-01T01:42:02.276Z,0
2017-07-01T01:43:12.630Z,0
2017-07-01T01:44:22.980Z,0
2017-07-01T01:45:33.367Z,0
2017-07-01T01:46:43.714Z,0
2017-07-01T01:47:54.068Z,0
2017-07-01T01:49:04.110Z,0
2017-07-01T01:50:14.466Z,0
2017-07-01T01:51:24.865Z,0
2017-07-01T01:52:35.205Z,0
2017-07-01T01:53:45.563Z,0
2017-07-01T01:54:55.916Z,0
2017-07-01T01:56:05.995Z,0
2017-07-01T01:57:16.082Z,0
2017-07-01T01:58:26.430Z,0
2017-07-01T01:59:36.763Z,0
2017-07-01T02:00:47.118Z,0
2017-07-01T02:01:57.461Z,0
2017-07-01T02:03:07.806Z,0
2017-07-01T02:04:18.175Z,0
2017-07-01T02:05:28.235Z,0
2017-07-01T02:06:38.574Z,0
2017-07-01T02:07:48.608Z,0
2017-07-01T02:08:58.375Z,0
2017-07-01T02:10:08.718Z,0
2017-07-01T02:11:19.064Z,0
2017-07-01T02:12:29.109Z,0
2017-07-01T02:13:39.461Z,0
2017-07-01T02:14:49.858Z,0
2017-07-01T02:16:00.197Z,0
2017-07-01T02:17:10.242Z,0
2017-07-01T02:18:20.284Z,0
2017-07-01T02:19:30.922Z,0
2017-07-01T02:20:41.288Z,0
2017-07-01T02:21:51.331Z,0
2017-07-01T02:23:01.687Z,0
2017-07-01T02:24:12.033Z,0
2017-07-01T02:25:22.071Z,0
2017-07-01T02:26:32.467Z,0
2017-07-01T02:27:42.507Z,0
2017-07-01T02:28:52.867Z,0
2017-07-01T02:30:02.591Z,0
2017-07-01T02:31:12.323Z,0
2017-07-01T02:32:22.724Z,0
2017-07-01T02:33:33.081Z,0
2017-07-01T02:34:43.129Z,0
2017-07-01T02:35:53.177Z,0
2017-07-01T02:37:03.207Z,0
2017-07-01T02:38:13.605Z,0
2017-07-01T02:39:23.632Z,0
2017-07-01T02:40:33.970Z,0
2017-07-01T02:41:44.326Z,0
2017-07-01T02:42:54.697Z,0
2017-07-01T02:44:05.089Z,0
2017-07-01T02:45:15.105Z,0
2017-07-01T02:46:24.529Z,0
2017-07-01T02:47:34.566Z,0
2017-07-01T02:48:44.922Z,0
2017-07-01T02:49:55.268Z,0
2017-07-01T02:51:05.309Z,0
2017-07-01T02:52:15.345Z,0
2017-07-01T02:53:25.684Z,0
2017-07-01T02:54:35.710Z,0
2017-07-01T02:55:46.047Z,0
2017-07-01T02:56:56.388Z,0
2017-07-01T02:58:06.095Z,0
2017-07-01T02:59:16.412Z,0
2017-07-01T03:00:26.758Z,0
2017-07-01T03:01:36.860Z,0
2017-07-01T03:33:24.808Z,15
2017-07-01T03:34:34.837Z,15
2017-07-01T03:35:45.182Z,15
2017-07-01T03:36:55.518Z,15
2017-07-01T03:38:05.539Z,15
2017-07-01T03:39:15.312Z,15
2017-07-01T03:40:25.657Z,15
2017-07-01T03:41:35.701Z,15
2017-07-01T03:42:45.423Z,15
2017-07-01T03:43:55.449Z,15
2017-07-01T03:45:05.523Z,15
2017-07-01T03:46:15.877Z,15
2017-07-01T03:47:26.215Z,20
2017-07-01T03:48:36.251Z,20
2017-07-01T03:49:46.638Z,20
2017-07-01T03:50:56.974Z,25
2017-07-01T03:52:07.000Z,25
2017-07-01T03:53:17.360Z,25
2017-07-01T03:54:27.708Z,25
2017-07-01T03:55:38.057Z,25
2017-07-01T03:56:48.458Z,30
2017-07-01T03:57:58.795Z,30
2017-07-01T03:59:08.828Z,30
2017-07-01T04:00:19.168Z,30
2017-07-01T04:01:29.517Z,30
2017-07-01T04:02:39.866Z,30
2017-07-01T04:03:50.215Z,35
2017-07-01T04:05:00.561Z,35
2017-07-01T04:06:10.962Z,35
2017-07-01T04:07:21.324Z,35
2017-07-01T04:08:31.363Z,35
2017-07-01T04:09:41.714Z,35
2017-07-01T04:10:52.085Z,35
2017-07-01T04:12:02.426Z,40
2017-07-01T04:13:12.466Z,40
2017-07-01T04:14:22.871Z,40
2017-07-01T04:15:32.908Z,40
2017-07-01T04:16:43.248Z,40
2017-07-01T04:17:53.603Z,45
2017-07-01T04:19:03.962Z,45
2017-07-01T04:20:14.365Z,55
2017-07-01T04:21:24.697Z,55
2017-07-01T04:22:35.042Z,55
2017-07-01T04:23:45.394Z,55
2017-07-01T04:24:55.423Z,60
2017-07-01T04:26:05.832Z,60
2017-07-01T04:27:15.870Z,60
2017-07-01T04:28:25.906Z,60
2017-07-01T04:29:35.618Z,65
2017-07-01T04:30:45.960Z,65
2017-07-01T04:31:55.683Z,70
2017-07-01T04:33:06.019Z,70
2017-07-01T04:34:16.061Z,75
2017-07-01T04:35:26.422Z,80
2017-07-01T04:36:36.766Z,85
2017-07-01T04:37:47.120Z,95
2017-07-01T04:38:57.159Z,105
2017-07-01T04:40:07.520Z,105
2017-07-01T04:41:17.550Z,115
2017-07-01T04:42:27.898Z,120
2017-07-01T04:43:37.986Z,130
2017-07-01T04:44:48.006Z,150
2017-07-01T04:45:58.038Z,170
2017-07-01T04:47:08.374Z,175
2017-07-01T04:48:18.708Z,260
2017-07-01T04:49:29.118Z,265
2017-07-01T04:50:39.139Z,145
2017-07-01T04:51:48.855Z,135
2017-07-01T04:52:58.896Z,120
2017-07-01T04:54:09.237Z,120
2017-07-01T04:55:19.643Z,115
2017-07-01T04:56:30.019Z,100
2017-07-01T04:57:40.415Z,100
2017-07-01T04:58:50.775Z,95
2017-07-01T05:00:01.131Z,95
2017-07-01T05:01:10.911Z,95
2017-07-01T05:02:21.263Z,95
2017-07-01T05:03:31.627Z,90
2017-07-01T05:04:41.981Z,90
2017-07-01T05:05:52.385Z,85
2017-07-01T05:07:02.799Z,80
2017-07-01T05:08:13.153Z,80
2017-07-01T05:09:23.495Z,75
2017-07-01T05:10:33.236Z,75
2017-07-01T05:11:43.589Z,80
2017-07-01T05:12:53.704Z,80
2017-07-01T05:14:04.050Z,80
2017-07-01T05:15:14.071Z,80
2017-07-01T05:16:23.803Z,80
2017-07-01T05:17:34.159Z,75
2017-07-01T05:18:44.198Z,70
2017-07-01T05:19:54.229Z,65
2017-07-01T05:21:04.580Z,65
2017-07-01T05:22:14.622Z,60
2017-07-01T05:23:24.661Z,50
2017-07-01T05:24:34.747Z,45
2017-07-01T05:25:45.086Z,45
2017-07-01T05:26:55.127Z,40
2017-07-01T05:28:05.466Z,40
2017-07-01T05:29:15.870Z,40
2017-07-01T05:30:26.209Z,40
2017-07-01T05:31:36.556Z,40
2017-07-01T05:32:46.605Z,40
2017-07-01T05:33:56.947Z,40
2017-07-01T05:35:07.293Z,40
2017-07-01T05:36:17.656Z,45
2017-07-01T05:37:27.704Z,45
2017-07-01T05:38:38.049Z,45
2017-07-01T05:39:48.403Z,45
2017-07-01T05:40:58.742Z,45
2017-07-01T05:42:09.151Z,45
2017-07-01T05:43:19.519Z,45
2017-07-01T05:44:29.896Z,45
2017-07-01T05:45:40.298Z,45
2017-07-01T05:46:50.017Z,45
2017-07-01T05:48:00.437Z,45
2017-07-01T05:49:10.478Z,45
2017-07-01T05:50:20.826Z,40
2017-07-01T05:51:31.247Z,40
2017-07-01T05:52:41.283Z,45
2017-07-01T05:53:51.371Z,45
2017-07-01T05:55:01.722Z,45
2017-07-01T05:56:11.749Z,45
2017-07-01T05:57:22.128Z,40
2017-07-01T05:58:32.157Z,40
2017-07-01T05:59:42.500Z,35
2017-07-01T06:00:52.847Z,35
2017-07-01T06:02:02.895Z,30
2017-07-01T06:03:12.644Z,30
2017-07-01T06:04:22.991Z,30
2017-07-01T06:05:33.029Z,30
2017-07-01T06:06:43.065Z,30
2017-07-01T06:07:53.462Z,25
2017-07-01T06:09:03.247Z,25
2017-07-01T06:10:13.585Z,25
2017-07-01T06:11:23.625Z,25
2017-07-01T06:12:33.972Z,20
2017-07-01T06:13:44.011Z,20
2017-07-01T06:14:53.429Z,20
2017-07-01T06:16:03.474Z,20
2017-07-01T06:17:13.525Z,25
2017-07-01T06:18:23.562Z,25
2017-07-01T06:19:33.655Z,25
2017-07-01T06:20:43.700Z,30
2017-07-01T06:21:53.761Z,35
2017-07-01T06:23:03.791Z,40
2017-07-01T06:24:13.830Z,40
2017-07-01T06:25:24.238Z,45
2017-07-01T06:26:33.949Z,45
2017-07-01T06:27:44.296Z,50
2017-07-01T06:28:54.625Z,50
2017-07-01T06:30:04.352Z,50
2017-07-01T06:31:14.423Z,60
2017-07-01T06:32:24.776Z,65
2017-07-01T06:33:34.806Z,70
2017-07-01T06:34:44.561Z,75
2017-07-01T06:35:54.920Z,80
2017-07-01T06:37:05.592Z,75
2017-07-01T06:38:15.654Z,75
2017-07-01T06:39:25.724Z,70
2017-07-01T06:40:35.784Z,65
2017-07-01T06:41:46.159Z,60
2017-07-01T06:42:56.583Z,60
2017-07-01T06:44:06.969Z,60
2017-07-01T06:45:17.358Z,60
2017-07-01T06:46:27.386Z,65
2017-07-01T06:47:37.422Z,65
2017-07-01T06:48:47.791Z,70
2017-07-01T06:49:57.851Z,70
2017-07-01T06:51:08.211Z,70
2017-07-01T06:52:18.269Z,70
2017-07-01T06:53:28.663Z,70
2017-07-01T06:54:39.065Z,75
2017-07-01T06:55:49.442Z,80
2017-07-01T06:56:59.799Z,85
2017-07-01T06:58:10.162Z,85
2017-07-01T06:59:19.895Z,85
2017-07-01T07:00:30.308Z,90
2017-07-01T07:01:40.672Z,90
2017-07-01T07:02:50.778Z,90
2017-07-01T07:04:00.817Z,95
2017-07-01T07:05:11.167Z,105
2017-07-01T07:06:21.586Z,110
2017-07-01T07:07:31.607Z,110
2017-07-01T07:08:41.958Z,110
2017-07-01T07:09:52.316Z,110
2017-07-01T07:11:02.039Z,110
2017-07-01T07:12:11.823Z,115
2017-07-01T07:13:22.175Z,120
2017-07-01T07:14:32.234Z,120
2017-07-01T07:15:41.955Z,125
2017-07-01T07:16:52.302Z,130
2017-07-01T07:18:02.654Z,140
2017-07-01T07:19:13.045Z,150
2017-07-01T07:20:23.401Z,155
2017-07-01T07:21:33.760Z,155
2017-07-01T07:22:44.123Z,155
2017-07-01T07:23:54.486Z,155
2017-07-01T07:25:04.549Z,155
2017-07-01T07:26:14.579Z,155
2017-07-01T07:27:24.620Z,155
2017-07-01T07:28:34.655Z,160
2017-07-01T07:29:45.231Z,165
2017-07-01T07:30:55.586Z,175
2017-07-01T07:32:05.629Z,180
2017-07-01T07:33:15.984Z,185
2017-07-01T07:34:26.041Z,190
2017-07-01T07:35:36.438Z,195
2017-07-01T07:36:46.806Z,200
2017-07-01T07:37:56.544Z,205
2017-07-01T07:39:06.889Z,205
2017-07-01T07:40:17.251Z,210
2017-07-01T07:41:27.633Z,220
2017-07-01T07:42:37.990Z,215
2017-07-01T07:43:48.324Z,220
2017-07-01T07:44:58.104Z,225
2017-07-01T07:46:08.196Z,220
2017-07-01T07:47:18.601Z,215
2017-07-01T07:48:28.945Z,210
2017-07-01T07:49:39.285Z,210
2017-07-01T07:50:49.035Z,210
2017-07-01T07:51:59.075Z,215
2017-07-01T07:53:09.443Z,215
2017-07-01T07:54:19.788Z,220
2017-07-01T07:55:29.808Z,220
2017-07-01T07:56:40.151Z,215
2017-07-01T07:57:50.196Z,220
2017-07-01T07:59:00.605Z,220
2017-07-01T08:00:10.973Z,225
2017-07-01T08:01:21.016Z,225
2017-07-01T08:02:31.375Z,220
2017-07-01T08:03:41.077Z,220
2017-07-01T08:04:51.482Z,225
2017-07-01T08:06:01.515Z,230
2017-07-01T08:07:11.859Z,235
2017-07-01T08:08:21.615Z,240
2017-07-01T08:09:31.964Z,245
2017-07-01T08:10:42.366Z,240
2017-07-01T08:11:52.510Z,235
2017-07-01T08:13:02.865Z,220
2017-07-01T08:14:12.909Z,210
2017-07-01T08:15:23.268Z,205
2017-07-01T08:16:33.358Z,205
2017-07-01T08:17:43.698Z,210
2017-07-01T08:18:53.749Z,205
2017-07-01T08:20:04.113Z,205
2017-07-01T08:21:14.472Z,205
2017-07-01T08:22:24.844Z,200
2017-07-01T08:23:34.936Z,200
2017-07-01T08:24:45.299Z,210
2017-07-01T08:25:55.340Z,200
2017-07-01T08:27:05.690Z,200
2017-07-01T08:28:16.020Z,195
2017-07-01T08:29:26.360Z,185
2017-07-01T08:30:36.094Z,170
2017-07-01T08:31:46.453Z,205
2017-07-01T08:32:56.489Z,155
2017-07-01T08:34:06.965Z,150
2017-07-01T08:35:17.339Z,150
2017-07-01T08:36:27.398Z,150
2017-07-01T08:37:37.127Z,150
2017-07-01T08:38:47.156Z,155
2017-07-01T08:39:57.198Z,160
2017-07-01T08:41:07.556Z,175
2017-07-01T08:42:17.901Z,200
2017-07-01T08:43:28.245Z,225
2017-07-01T08:44:38.617Z,245
2017-07-01T08:45:48.959Z,260
2017-07-01T08:46:59.298Z,270
2017-07-01T08:48:09.665Z,275
2017-07-01T08:49:19.540Z,265
2017-07-01T08:50:29.883Z,250
2017-07-01T08:51:39.976Z,245
2017-07-01T08:52:50.337Z,235
2017-07-01T08:54:00.698Z,220
2017-07-01T08:55:10.741Z,220
2017-07-01T08:56:21.091Z,210
2017-07-01T08:57:31.229Z,210
2017-07-01T08:58:41.595Z,210
2017-07-01T08:59:51.945Z,215
2017-07-01T09:01:01.979Z,285
2017-07-01T09:02:12.349Z,260
2017-07-01T09:03:22.394Z,260
2017-07-01T09:04:32.746Z,255
2017-07-01T09:05:42.814Z,240
2017-07-01T09:06:52.866Z,235
2017-07-01T09:08:03.214Z,225
2017-07-01T09:09:13.324Z,220
2017-07-01T09:10:23.685Z,215
2017-07-01T09:11:33.711Z,215
2017-07-01T09:12:44.075Z,215
2017-07-01T09:13:53.814Z,210
2017-07-01T09:15:03.905Z,205
2017-07-01T09:16:14.253Z,205
2017-07-01T09:17:24.000Z,205
2017-07-01T09:18:34.344Z,205
2017-07-01T09:19:44.701Z,205
2017-07-01T09:20:55.105Z,200
2017-07-01T09:22:05.509Z,200
2017-07-01T09:23:15.863Z,205
2017-07-01T09:24:25.903Z,200
2017-07-01T09:25:36.246Z,200
2017-07-01T09:26:46.636Z,200
2017-07-01T09:27:56.993Z,200
2017-07-01T09:29:07.034Z,205
2017-07-01T09:30:17.407Z,200
2017-07-01T09:31:27.481Z,200
2017-07-01T09:32:37.889Z,205
2017-07-01T09:33:48.247Z,205
2017-07-01T09:34:58.280Z,210
2017-07-01T09:36:08.637Z,125
2017-07-01T09:37:18.994Z,215
2017-07-01T09:38:29.405Z,185
2017-07-01T09:39:39.802Z,210
2017-07-01T09:40:49.838Z,205
2017-07-01T09:41:59.871Z,205
2017-07-01T09:43:10.213Z,210
2017-07-01T09:44:20.619Z,180
2017-07-01T09:45:31.012Z,210
2017-07-01T09:46:40.736Z,210
2017-07-01T09:47:51.093Z,210
2017-07-01T09:49:01.448Z,210
2017-07-01T09:50:11.873Z,210
2017-07-01T09:51:22.239Z,210
2017-07-01T09:52:32.606Z,215
2017-07-01T09:53:42.660Z,210
2017-07-01T09:54:53.015Z,210
2017-07-01T09:56:03.066Z,210
2017-07-01T09:57:13.186Z,205
2017-07-01T09:58:23.555Z,210
2017-07-01T09:59:33.268Z,210
2017-07-01T10:00:43.378Z,210
2017-07-01T10:01:53.784Z,210
2017-07-01T10:03:04.163Z,210
2017-07-01T10:04:14.533Z,210
2017-07-01T10:05:24.581Z,210
2017-07-01T10:06:34.336Z,210
2017-07-01T10:07:44.683Z,215
2017-07-01T10:08:55.037Z,215
2017-07-01T10:10:05.072Z,210
2017-07-01T10:11:15.418Z,215
2017-07-01T10:12:25.470Z,215
2017-07-01T10:13:35.820Z,210
2017-07-01T10:14:46.175Z,210
2017-07-01T10:15:56.213Z,210
2017-07-01T10:17:06.584Z,215
2017-07-01T10:18:16.941Z,215
2017-07-01T10:19:27.296Z,215
2017-07-01T10:20:37.653Z,215
2017-07-01T10:21:47.678Z,215
2017-07-01T10:22:58.041Z,215
2017-07-01T10:24:08.409Z,220
2017-07-01T10:25:18.814Z,220
2017-07-01T10:26:29.180Z,225
2017-07-01T10:27:39.536Z,240
2017-07-01T10:28:49.583Z,245
2017-07-01T10:29:59.950Z,250
2017-07-01T10:31:10.354Z,255
2017-07-01T10:32:20.700Z,250
2017-07-01T10:33:31.069Z,250
2017-07-01T10:34:41.521Z,250
2017-07-01T10:35:51.871Z,255
2017-07-01T10:37:02.269Z,255
2017-07-01T10:38:12.614Z,255
2017-07-01T10:39:22.646Z,255
2017-07-01T10:40:33.011Z,250
2017-07-01T10:41:43.381Z,250
2017-07-01T10:42:53.788Z,250
2017-07-01T10:44:04.143Z,250
2017-07-01T10:45:13.910Z,250
2017-07-01T10:46:24.269Z,240
2017-07-01T10:47:34.610Z,160
2017-07-01T10:48:44.655Z,245
2017-07-01T10:49:55.013Z,130
2017-07-01T10:51:04.765Z,240
2017-07-01T10:52:15.135Z,250
2017-07-01T10:53:25.179Z,250
2017-07-01T10:54:35.301Z,255
2017-07-01T10:55:45.677Z,260
2017-07-01T10:56:56.046Z,275
2017-07-01T10:58:06.089Z,275
2017-07-01T10:59:16.436Z,270
2017-07-01T11:00:26.534Z,265
2017-07-01T11:01:36.891Z,260
2017-07-01T11:02:46.951Z,255
2017-07-01T11:03:57.300Z,255
2017-07-01T11:05:07.993Z,255
2017-07-01T11:06:18.098Z,255
2017-07-01T11:07:28.481Z,260
2017-07-01T11:08:38.837Z,145
2017-07-01T11:09:49.194Z,265
2017-07-01T11:10:59.544Z,270
2017-07-01T11:12:09.659Z,260
2017-07-01T11:13:20.034Z,250
2017-07-01T11:14:30.082Z,250
2017-07-01T11:15:40.422Z,245
2017-07-01T11:16:50.775Z,250
2017-07-01T11:18:00.813Z,245
2017-07-01T11:19:11.163Z,245
2017-07-01T11:20:21.223Z,135
2017-07-01T11:21:30.995Z,245
2017-07-01T11:22:41.361Z,245
2017-07-01T11:23:51.728Z,240
2017-07-01T11:25:02.097Z,245
2017-07-01T11:26:12.467Z,250
2017-07-01T11:27:22.834Z,260
2017-07-01T11:28:33.333Z,255
2017-07-01T11:29:43.396Z,260
2017-07-01T11:30:53.766Z,260
2017-07-01T11:32:04.290Z,260
2017-07-01T11:33:14.338Z,255
2017-07-01T11:34:24.701Z,255
2017-07-01T11:35:35.064Z,250
2017-07-01T11:36:45.459Z,245
2017-07-01T11:37:55.517Z,240
2017-07-01T11:39:05.875Z,235
2017-07-01T11:40:16.226Z,240
2017-07-01T11:41:26.583Z,245
2017-07-01T11:42:36.943Z,245
2017-07-01T11:43:47.010Z,250
2017-07-01T11:44:57.075Z,250
2017-07-01T11:46:07.427Z,245
2017-07-01T11:47:17.786Z,245
2017-07-01T11:48:28.140Z,240
2017-07-01T11:49:38.269Z,240
2017-07-01T11:50:48.625Z,240
2017-07-01T11:51:58.677Z,240
2017-07-01T11:53:09.038Z,240
2017-07-01T11:54:19.404Z,240
2017-07-01T11:55:29.762Z,240
2017-07-01T11:56:39.803Z,240
2017-07-01T11:57:50.152Z,235
2017-07-01T11:59:00.511Z,240
2017-07-01T12:00:10.889Z,230
2017-07-01T12:01:20.700Z,235
2017-07-01T12:02:31.054Z,235
2017-07-01T12:03:41.424Z,230
2017-07-01T12:04:51.770Z,230
2017-07-01T12:06:01.824Z,230
2017-07-01T12:07:11.869Z,235
2017-07-01T12:08:22.237Z,230
2017-07-01T12:09:32.270Z,230
2017-07-01T12:10:42.627Z,235
2017-07-01T12:11:52.992Z,230
2017-07-01T12:13:03.653Z,230
2017-07-01T12:14:14.000Z,225
2017-07-01T12:15:24.362Z,230
2017-07-01T12:16:36.958Z,230
2017-07-01T12:17:47.716Z,230
2017-07-01T12:18:58.217Z,240
2017-07-01T12:20:08.590Z,120
2017-07-01T12:21:18.952Z,225
2017-07-01T12:22:29.308Z,200
2017-07-01T12:23:39.475Z,260
2017-07-01T12:24:49.588Z,265
2017-07-01T12:25:59.927Z,265
2017-07-01T12:27:09.665Z,235
2017-07-01T12:28:19.403Z,195
2017-07-01T12:29:29.477Z,150
2017-07-01T12:30:39.889Z,155
2017-07-01T12:31:49.636Z,175
2017-07-01T12:33:00.044Z,205
2017-07-01T12:34:10.417Z,230
2017-07-01T12:35:20.162Z,250
2017-07-01T12:36:30.539Z,270
2017-07-01T12:37:40.901Z,290
2017-07-01T12:38:51.276Z,285
2017-07-01T12:40:01.319Z,290
2017-07-01T12:41:11.372Z,290
2017-07-01T12:42:21.787Z,325
2017-07-01T12:43:31.531Z,360
2017-07-01T12:44:41.895Z,330
2017-07-01T12:45:52.267Z,365
2017-07-01T12:47:02.649Z,365
2017-07-01T12:48:12.993Z,405
2017-07-01T12:49:22.749Z,410
2017-07-01T12:50:33.129Z,295
2017-07-01T12:51:43.475Z,290
2017-07-01T12:52:53.915Z,275
2017-07-01T12:54:04.299Z,350
2017-07-01T12:55:14.659Z,360
2017-07-01T12:56:25.026Z,305
2017-07-01T12:57:35.385Z,370
2017-07-01T12:58:45.452Z,370
2017-07-01T12:59:55.509Z,350
2017-07-01T13:01:05.563Z,335
2017-07-01T13:02:15.666Z,315
2017-07-01T13:03:26.031Z,290
2017-07-01T13:04:36.131Z,270
2017-07-01T13:05:46.183Z,260
2017-07-01T13:06:56.534Z,260
2017-07-01T13:08:06.876Z,255
2017-07-01T13:09:16.920Z,245
2017-07-01T13:10:26.959Z,240
2017-07-01T13:11:37.347Z,235
2017-07-01T13:12:47.735Z,235
2017-07-01T13:13:58.103Z,230
2017-07-01T13:15:08.454Z,225
2017-07-01T13:16:18.793Z,225
2017-07-01T13:17:29.206Z,225
2017-07-01T13:18:39.586Z,220
2017-07-01T13:19:49.940Z,220
2017-07-01T13:20:59.990Z,220
2017-07-01T13:22:10.514Z,220
2017-07-01T13:23:20.565Z,220
2017-07-01T13:24:30.627Z,220
2017-07-01T13:25:40.684Z,215
2017-07-01T13:26:51.039Z,215
2017-07-01T13:28:01.402Z,215
2017-07-01T13:29:11.776Z,215
2017-07-01T13:30:21.846Z,210
2017-07-01T13:31:32.193Z,210
2017-07-01T13:32:42.549Z,210
2017-07-01T13:33:52.979Z,205
2017-07-01T13:35:03.354Z,205
2017-07-01T13:36:13.409Z,205
2017-07-01T13:37:23.758Z,205
2017-07-01T13:38:33.799Z,205
2017-07-01T13:39:43.891Z,205
2017-07-01T13:40:53.957Z,205
2017-07-01T13:42:04.305Z,205
2017-07-01T13:43:14.658Z,205
2017-07-01T13:44:25.066Z,205
2017-07-01T13:45:35.483Z,200
2017-07-01T13:46:45.839Z,205
2017-07-01T13:47:56.191Z,115
2017-07-01T13:49:06.607Z,205
2017-07-01T13:50:16.656Z,200
2017-07-01T13:51:27.098Z,200
2017-07-01T13:52:37.470Z,200
2017-07-01T13:53:47.217Z,200
2017-07-01T13:54:57.584Z,200
2017-07-01T13:56:07.311Z,200
2017-07-01T13:57:17.724Z,200
2017-07-01T13:58:28.089Z,195
2017-07-01T13:59:38.137Z,195
2017-07-01T14:00:48.508Z,195
2017-07-01T14:01:58.242Z,195
2017-07-01T14:03:08.301Z,195
2017-07-01T14:04:18.708Z,190
2017-07-01T14:05:28.766Z,195
2017-07-01T14:06:39.163Z,195
2017-07-01T14:07:49.222Z,190
2017-07-01T14:08:59.659Z,190
2017-07-01T14:10:10.031Z,190
2017-07-01T14:11:20.403Z,190
2017-07-01T14:12:29.821Z,190
2017-07-01T14:13:40.183Z,190
2017-07-01T14:14:50.546Z,185
2017-07-01T14:16:00.899Z,185
2017-07-01T14:17:11.263Z,185
2017-07-01T14:18:21.620Z,185
2017-07-01T14:19:32.002Z,185
2017-07-01T14:20:42.062Z,185
2017-07-01T14:21:52.449Z,185
2017-07-01T14:23:02.511Z,185
2017-07-01T14:24:12.544Z,185
2017-07-01T14:25:22.304Z,185
2017-07-01T14:26:32.679Z,185
2017-07-01T14:27:43.090Z,180
2017-07-01T14:28:53.457Z,180
2017-07-01T14:30:03.817Z,180
2017-07-01T14:31:13.871Z,185
2017-07-01T14:32:23.941Z,180
2017-07-01T14:33:34.038Z,180
2017-07-01T14:34:44.403Z,180
2017-07-01T14:35:54.784Z,180
2017-07-01T14:37:05.157Z,180
2017-07-01T14:38:15.780Z,180
2017-07-01T14:39:25.569Z,180
2017-07-01T14:40:35.639Z,175
2017-07-01T14:41:46.020Z,175
2017-07-01T14:42:56.378Z,175
2017-07-01T14:44:06.724Z,175
2017-07-01T14:45:16.827Z,175
2017-07-01T14:46:27.189Z,175
2017-07-01T14:47:37.247Z,175
2017-07-01T14:48:47.620Z,175
2017-07-01T14:49:57.999Z,170
2017-07-01T14:51:08.404Z,170
2017-07-01T14:52:18.772Z,170
2017-07-01T14:53:29.140Z,170
2017-07-01T14:54:39.187Z,170
2017-07-01T14:55:49.239Z,165
2017-07-01T14:56:59.863Z,165
2017-07-01T14:58:10.230Z,165
2017-07-01T14:59:19.965Z,165
2017-07-01T15:00:30.352Z,165
2017-07-01T15:01:40.085Z,170
2017-07-01T15:02:50.573Z,165
2017-07-01T15:04:00.939Z,160
2017-07-01T15:05:11.298Z,165
2017-07-01T15:06:21.353Z,160
2017-07-01T15:07:31.725Z,160
2017-07-01T15:08:42.142Z,160
2017-07-01T15:09:52.199Z,160
2017-07-01T15:11:02.615Z,165
2017-07-01T15:12:13.009Z,160
2017-07-01T15:13:23.054Z,160
2017-07-01T15:14:33.444Z,155
2017-07-01T15:15:43.807Z,160
2017-07-01T15:16:53.857Z,155
2017-07-01T15:18:04.242Z,155
2017-07-01T15:19:14.655Z,155
2017-07-01T15:20:24.796Z,155
2017-07-01T15:21:35.187Z,155
2017-07-01T15:22:45.272Z,150
2017-07-01T15:23:55.706Z,150
2017-07-01T15:25:06.112Z,150
2017-07-01T15:26:16.837Z,150
2017-07-01T15:27:27.241Z,150
2017-07-01T15:28:37.656Z,150
2017-07-01T15:29:48.058Z,150
2017-07-01T15:30:58.458Z,145
2017-07-01T15:32:08.902Z,145
2017-07-01T15:33:19.303Z,145
2017-07-01T15:34:29.406Z,145
2017-07-01T15:35:39.814Z,145
2017-07-01T15:36:50.225Z,145
2017-07-01T15:38:00.691Z,145
2017-07-01T15:39:11.093Z,145
2017-07-01T15:40:21.703Z,150
2017-07-01T15:41:32.112Z,140
2017-07-01T15:42:42.208Z,140
2017-07-01T15:43:52.945Z,140
2017-07-01T15:45:03.368Z,145
2017-07-01T15:46:13.834Z,140
2017-07-01T15:47:24.302Z,140
2017-07-01T15:48:34.413Z,140
2017-07-01T15:49:44.576Z,135
2017-07-01T15:50:54.995Z,135
2017-07-01T15:52:05.370Z,135
2017-07-01T15:53:15.811Z,135
2017-07-01T15:54:26.220Z,135
2017-07-01T15:55:36.906Z,135
2017-07-01T15:56:47.289Z,135
2017-07-01T15:57:57.357Z,135
2017-07-01T15:59:07.403Z,135
2017-07-01T16:00:17.821Z,135
2017-07-01T16:01:28.237Z,135
2017-07-01T16:02:38.869Z,135
2017-07-01T16:03:49.512Z,135
2017-07-01T16:04:59.588Z,135
2017-07-01T16:06:09.964Z,130
2017-07-01T16:07:20.652Z,130
2017-07-01T16:08:30.779Z,130
2017-07-01T16:09:41.235Z,130
2017-07-01T16:10:51.311Z,130
2017-07-01T16:12:01.711Z,130
2017-07-01T16:13:12.099Z,130
2017-07-01T16:14:22.150Z,130
2017-07-01T16:15:32.545Z,130
2017-07-01T16:16:42.906Z,125
2017-07-01T16:17:53.289Z,125
2017-07-01T16:19:03.727Z,125
2017-07-01T16:20:13.776Z,125
2017-07-01T16:21:24.146Z,125
2017-07-01T16:22:34.214Z,125
2017-07-01T16:23:44.563Z,125
2017-07-01T16:24:54.693Z,120
2017-07-01T16:26:05.067Z,120
2017-07-01T16:27:15.128Z,120
2017-07-01T16:28:25.486Z,115
2017-07-01T16:29:35.523Z,115
2017-07-01T16:30:45.939Z,115
2017-07-01T16:31:56.317Z,115
2017-07-01T16:33:06.410Z,115
2017-07-01T16:34:16.777Z,110
2017-07-01T16:35:27.141Z,115
2017-07-01T16:36:37.564Z,115
2017-07-01T16:37:47.964Z,110
2017-07-01T16:38:58.342Z,110
2017-07-01T16:40:08.723Z,110
2017-07-01T16:41:19.094Z,105
2017-07-01T16:42:29.481Z,110
2017-07-01T16:43:39.559Z,110
2017-07-01T16:44:49.926Z,110
2017-07-01T16:46:00.304Z,110
2017-07-01T16:47:10.061Z,110
2017-07-01T16:48:20.535Z,95
2017-07-01T16:49:30.609Z,85
2017-07-01T16:50:40.964Z,110
2017-07-01T16:51:51.325Z,110
2017-07-01T16:53:01.372Z,110
2017-07-01T16:54:11.814Z,110
2017-07-01T16:55:22.188Z,110
2017-07-01T16:56:32.230Z,110